sensor_id;sensor_type;location;lat;lon;timestamp;temperature;humidity
2763;DHT22;1389;51.490;7.338;2023-03-04T00:02:03;5.00;83.40
2763;DHT22;1389;51.490;7.338;2023-03-04T00:04:30;5.00;83.30
2763;DHT22;1389;51.490;7.338;2023-03-04T00:06:56;5.00;83.20
2763;DHT22;1389;51.490;7.338;2023-03-04T00:09:22;5.00;83.10
2763;DHT22;1389;51.490;7.338;2023-03-04T00:11:48;5.00;83.00
2763;DHT22;1389;51.490;7.338;2023-03-04T00:14:14;5.10;83.00
2763;DHT22;1389;51.490;7.338;2023-03-04T00:16:40;5.10;82.80
2763;DHT22;1389;51.490;7.338;2023-03-04T00:19:07;5.10;82.60
2763;DHT22;1389;51.490;7.338;2023-03-04T00:21:33;5.10;82.60
2763;DHT22;1389;51.490;7.338;2023-03-04T00:23:59;5.10;82.70
2763;DHT22;1389;51.490;7.338;2023-03-04T00:26:25;5.10;82.80
2763;DHT22;1389;51.490;7.338;2023-03-04T00:28:51;5.10;82.70
2763;DHT22;1389;51.490;7.338;2023-03-04T00:31:17;5.10;82.60
2763;DHT22;1389;51.490;7.338;2023-03-04T00:33:44;5.10;82.60
2763;DHT22;1389;51.490;7.338;2023-03-04T00:36:10;5.10;82.50
2763;DHT22;1389;51.490;7.338;2023-03-04T00:38:36;5.10;82.50
2763;DHT22;1389;51.490;7.338;2023-03-04T00:41:02;5.10;82.40
2763;DHT22;1389;51.490;7.338;2023-03-04T00:43:28;5.10;82.50
2763;DHT22;1389;51.490;7.338;2023-03-04T00:45:55;5.10;82.50
2763;DHT22;1389;51.490;7.338;2023-03-04T00:48:21;5.10;82.50
2763;DHT22;1389;51.490;7.338;2023-03-04T00:50:47;5.10;82.50
2763;DHT22;1389;51.490;7.338;2023-03-04T00:53:13;5.10;82.50
2763;DHT22;1389;51.490;7.338;2023-03-04T00:55:40;5.20;82.50
2763;DHT22;1389;51.490;7.338;2023-03-04T00:58:06;5.20;82.40
2763;DHT22;1389;51.490;7.338;2023-03-04T01:00:32;5.10;82.50
2763;DHT22;1389;51.490;7.338;2023-03-04T01:02:58;5.20;82.40
2763;DHT22;1389;51.490;7.338;2023-03-04T01:05:24;5.20;82.40
2763;DHT22;1389;51.490;7.338;2023-03-04T01:07:50;5.20;82.50
2763;DHT22;1389;51.490;7.338;2023-03-04T01:10:16;5.20;82.50
2763;DHT22;1389;51.490;7.338;2023-03-04T01:12:42;5.30;82.50
2763;DHT22;1389;51.490;7.338;2023-03-04T01:15:11;5.30;82.30
2763;DHT22;1389;51.490;7.338;2023-03-04T01:17:37;5.30;82.30
2763;DHT22;1389;51.490;7.338;2023-03-04T01:20:06;5.30;82.30
2763;DHT22;1389;51.490;7.338;2023-03-04T01:22:32;5.30;82.30
2763;DHT22;1389;51.490;7.338;2023-03-04T01:24:58;5.30;82.40
2763;DHT22;1389;51.490;7.338;2023-03-04T01:27:24;5.30;82.40
2763;DHT22;1389;51.490;7.338;2023-03-04T01:29:51;5.30;82.40
2763;DHT22;1389;51.490;7.338;2023-03-04T01:32:17;5.30;82.30
2763;DHT22;1389;51.490;7.338;2023-03-04T01:34:43;5.20;82.20
2763;DHT22;1389;51.490;7.338;2023-03-04T01:37:09;5.30;81.90
2763;DHT22;1389;51.490;7.338;2023-03-04T01:39:36;5.30;82.10
2763;DHT22;1389;51.490;7.338;2023-03-04T01:42:02;5.30;82.10
2763;DHT22;1389;51.490;7.338;2023-03-04T01:44:28;5.30;82.20
2763;DHT22;1389;51.490;7.338;2023-03-04T01:46:55;5.30;82.10
2763;DHT22;1389;51.490;7.338;2023-03-04T01:49:21;5.30;82.00
2763;DHT22;1389;51.490;7.338;2023-03-04T01:51:53;5.30;81.90
2763;DHT22;1389;51.490;7.338;2023-03-04T01:54:20;5.30;81.90
2763;DHT22;1389;51.490;7.338;2023-03-04T01:56:48;5.30;81.90
2763;DHT22;1389;51.490;7.338;2023-03-04T01:59:20;5.30;81.90
2763;DHT22;1389;51.490;7.338;2023-03-04T02:01:52;5.30;81.90
2763;DHT22;1389;51.490;7.338;2023-03-04T02:04:25;5.30;81.90
2763;DHT22;1389;51.490;7.338;2023-03-04T02:06:51;5.30;81.90
2763;DHT22;1389;51.490;7.338;2023-03-04T02:09:20;5.30;81.90
2763;DHT22;1389;51.490;7.338;2023-03-04T02:11:46;5.30;81.80
2763;DHT22;1389;51.490;7.338;2023-03-04T02:14:14;5.30;81.90
2763;DHT22;1389;51.490;7.338;2023-03-04T02:16:41;5.30;82.10
2763;DHT22;1389;51.490;7.338;2023-03-04T02:21:48;5.40;81.80
2763;DHT22;1389;51.490;7.338;2023-03-04T02:24:26;5.40;81.80
2763;DHT22;1389;51.490;7.338;2023-03-04T02:26:54;5.40;81.80
2763;DHT22;1389;51.490;7.338;2023-03-04T02:29:20;5.40;81.80
2763;DHT22;1389;51.490;7.338;2023-03-04T02:31:49;5.40;81.80
2763;DHT22;1389;51.490;7.338;2023-03-04T02:34:28;5.40;81.80
2763;DHT22;1389;51.490;7.338;2023-03-04T02:36:55;5.40;81.90
2763;DHT22;1389;51.490;7.338;2023-03-04T02:41:54;5.40;81.80
2763;DHT22;1389;51.490;7.338;2023-03-04T02:44:23;5.40;81.80
2763;DHT22;1389;51.490;7.338;2023-03-04T02:46:50;5.40;81.60
2763;DHT22;1389;51.490;7.338;2023-03-04T02:49:17;5.40;81.70
2763;DHT22;1389;51.490;7.338;2023-03-04T02:51:44;5.40;81.70
2763;DHT22;1389;51.490;7.338;2023-03-04T02:54:14;5.40;81.70
2763;DHT22;1389;51.490;7.338;2023-03-04T02:56:45;5.40;81.60
2763;DHT22;1389;51.490;7.338;2023-03-04T02:59:12;5.30;81.60
2763;DHT22;1389;51.490;7.338;2023-03-04T03:01:38;5.40;81.60
2763;DHT22;1389;51.490;7.338;2023-03-04T03:04:04;5.40;81.70
2763;DHT22;1389;51.490;7.338;2023-03-04T03:06:30;5.40;81.60
2763;DHT22;1389;51.490;7.338;2023-03-04T03:08:56;5.40;81.50
2763;DHT22;1389;51.490;7.338;2023-03-04T03:11:22;5.40;81.70
2763;DHT22;1389;51.490;7.338;2023-03-04T03:13:48;5.40;81.60
2763;DHT22;1389;51.490;7.338;2023-03-04T03:16:14;5.40;81.70
2763;DHT22;1389;51.490;7.338;2023-03-04T03:18:40;5.40;81.70
2763;DHT22;1389;51.490;7.338;2023-03-04T03:21:07;5.40;81.60
2763;DHT22;1389;51.490;7.338;2023-03-04T03:23:33;5.50;81.50
2763;DHT22;1389;51.490;7.338;2023-03-04T03:26:00;5.40;81.30
2763;DHT22;1389;51.490;7.338;2023-03-04T03:28:26;5.40;81.40
2763;DHT22;1389;51.490;7.338;2023-03-04T03:30:53;5.40;81.60
2763;DHT22;1389;51.490;7.338;2023-03-04T03:33:19;5.40;81.80
2763;DHT22;1389;51.490;7.338;2023-03-04T03:35:45;5.50;81.70
2763;DHT22;1389;51.490;7.338;2023-03-04T03:38:11;5.50;81.70
2763;DHT22;1389;51.490;7.338;2023-03-04T03:40:37;5.50;81.70
2763;DHT22;1389;51.490;7.338;2023-03-04T03:43:03;5.50;81.50
2763;DHT22;1389;51.490;7.338;2023-03-04T03:45:29;5.50;81.50
2763;DHT22;1389;51.490;7.338;2023-03-04T03:47:55;5.50;81.40
2763;DHT22;1389;51.490;7.338;2023-03-04T03:50:21;5.50;81.60
2763;DHT22;1389;51.490;7.338;2023-03-04T03:52:48;5.50;81.60
2763;DHT22;1389;51.490;7.338;2023-03-04T03:55:14;5.50;81.60
2763;DHT22;1389;51.490;7.338;2023-03-04T03:57:40;5.50;81.50
2763;DHT22;1389;51.490;7.338;2023-03-04T04:00:07;5.50;81.50
2763;DHT22;1389;51.490;7.338;2023-03-04T04:02:34;5.50;81.40
2763;DHT22;1389;51.490;7.338;2023-03-04T04:05:00;5.50;81.50
2763;DHT22;1389;51.490;7.338;2023-03-04T04:07:26;5.50;81.60
2763;DHT22;1389;51.490;7.338;2023-03-04T04:09:52;5.50;81.60
2763;DHT22;1389;51.490;7.338;2023-03-04T04:12:18;5.50;81.60
2763;DHT22;1389;51.490;7.338;2023-03-04T04:14:44;5.50;81.70
2763;DHT22;1389;51.490;7.338;2023-03-04T04:17:12;5.50;81.70
2763;DHT22;1389;51.490;7.338;2023-03-04T04:19:39;5.50;81.80
2763;DHT22;1389;51.490;7.338;2023-03-04T04:22:06;5.50;81.80
2763;DHT22;1389;51.490;7.338;2023-03-04T04:24:33;5.50;81.90
2763;DHT22;1389;51.490;7.338;2023-03-04T04:27:00;5.50;81.80
2763;DHT22;1389;51.490;7.338;2023-03-04T04:29:26;5.50;81.80
2763;DHT22;1389;51.490;7.338;2023-03-04T04:31:52;5.50;81.70
2763;DHT22;1389;51.490;7.338;2023-03-04T04:34:18;5.50;81.70
2763;DHT22;1389;51.490;7.338;2023-03-04T04:36:44;5.50;81.80
2763;DHT22;1389;51.490;7.338;2023-03-04T04:39:10;5.50;81.80
2763;DHT22;1389;51.490;7.338;2023-03-04T04:41:39;5.50;81.80
2763;DHT22;1389;51.490;7.338;2023-03-04T04:44:06;5.50;81.70
2763;DHT22;1389;51.490;7.338;2023-03-04T04:46:32;5.50;81.70
2763;DHT22;1389;51.490;7.338;2023-03-04T04:48:58;5.50;81.70
2763;DHT22;1389;51.490;7.338;2023-03-04T04:51:24;5.50;81.60
2763;DHT22;1389;51.490;7.338;2023-03-04T04:53:50;5.50;81.60
2763;DHT22;1389;51.490;7.338;2023-03-04T04:56:19;5.50;81.70
2763;DHT22;1389;51.490;7.338;2023-03-04T04:58:47;5.50;81.70
2763;DHT22;1389;51.490;7.338;2023-03-04T05:01:13;5.50;81.70
2763;DHT22;1389;51.490;7.338;2023-03-04T05:03:40;5.40;81.50
2763;DHT22;1389;51.490;7.338;2023-03-04T05:06:07;5.40;81.70
2763;DHT22;1389;51.490;7.338;2023-03-04T05:08:34;5.40;81.70
2763;DHT22;1389;51.490;7.338;2023-03-04T05:11:01;5.50;81.70
2763;DHT22;1389;51.490;7.338;2023-03-04T05:13:27;5.50;81.80
2763;DHT22;1389;51.490;7.338;2023-03-04T05:15:55;5.50;81.80
2763;DHT22;1389;51.490;7.338;2023-03-04T05:18:22;5.50;81.70
2763;DHT22;1389;51.490;7.338;2023-03-04T05:21:00;5.50;81.80
2763;DHT22;1389;51.490;7.338;2023-03-04T05:23:29;5.50;81.90
2763;DHT22;1389;51.490;7.338;2023-03-04T05:25:55;5.50;82.00
2763;DHT22;1389;51.490;7.338;2023-03-04T05:28:21;5.50;82.00
2763;DHT22;1389;51.490;7.338;2023-03-04T05:30:48;5.50;82.00
2763;DHT22;1389;51.490;7.338;2023-03-04T05:33:15;5.50;82.10
2763;DHT22;1389;51.490;7.338;2023-03-04T05:35:43;5.50;82.00
2763;DHT22;1389;51.490;7.338;2023-03-04T05:38:11;5.50;82.00
2763;DHT22;1389;51.490;7.338;2023-03-04T05:40:38;5.50;82.00
2763;DHT22;1389;51.490;7.338;2023-03-04T05:43:04;5.50;82.00
2763;DHT22;1389;51.490;7.338;2023-03-04T05:45:30;5.50;82.00
2763;DHT22;1389;51.490;7.338;2023-03-04T05:47:56;5.50;82.10
2763;DHT22;1389;51.490;7.338;2023-03-04T05:50:23;5.40;82.20
2763;DHT22;1389;51.490;7.338;2023-03-04T05:52:49;5.50;82.30
2763;DHT22;1389;51.490;7.338;2023-03-04T05:55:16;5.50;82.20
2763;DHT22;1389;51.490;7.338;2023-03-04T05:57:43;5.40;82.30
2763;DHT22;1389;51.490;7.338;2023-03-04T06:00:09;5.50;82.30
2763;DHT22;1389;51.490;7.338;2023-03-04T06:02:36;5.50;82.40
2763;DHT22;1389;51.490;7.338;2023-03-04T06:05:03;5.50;82.40
2763;DHT22;1389;51.490;7.338;2023-03-04T06:07:29;5.50;82.50
2763;DHT22;1389;51.490;7.338;2023-03-04T06:09:55;5.50;82.30
2763;DHT22;1389;51.490;7.338;2023-03-04T06:12:22;5.50;82.30
2763;DHT22;1389;51.490;7.338;2023-03-04T06:14:48;5.50;82.20
2763;DHT22;1389;51.490;7.338;2023-03-04T06:17:14;5.50;82.30
2763;DHT22;1389;51.490;7.338;2023-03-04T06:19:40;5.50;82.40
2763;DHT22;1389;51.490;7.338;2023-03-04T06:22:09;5.50;82.40
2763;DHT22;1389;51.490;7.338;2023-03-04T06:24:37;5.50;82.50
2763;DHT22;1389;51.490;7.338;2023-03-04T06:27:03;5.50;82.20
2763;DHT22;1389;51.490;7.338;2023-03-04T06:29:30;5.50;82.30
2763;DHT22;1389;51.490;7.338;2023-03-04T06:31:56;5.50;82.30
2763;DHT22;1389;51.490;7.338;2023-03-04T06:34:22;5.50;82.40
2763;DHT22;1389;51.490;7.338;2023-03-04T06:36:49;5.50;82.60
2763;DHT22;1389;51.490;7.338;2023-03-04T06:39:15;5.50;82.60
2763;DHT22;1389;51.490;7.338;2023-03-04T06:41:42;5.50;82.60
2763;DHT22;1389;51.490;7.338;2023-03-04T06:44:08;5.50;82.60
2763;DHT22;1389;51.490;7.338;2023-03-04T06:46:37;5.50;82.40
2763;DHT22;1389;51.490;7.338;2023-03-04T06:49:05;5.50;82.60
2763;DHT22;1389;51.490;7.338;2023-03-04T06:51:31;5.50;82.70
2763;DHT22;1389;51.490;7.338;2023-03-04T06:53:59;5.50;82.70
2763;DHT22;1389;51.490;7.338;2023-03-04T06:56:25;5.50;82.80
2763;DHT22;1389;51.490;7.338;2023-03-04T06:58:51;5.50;82.80
2763;DHT22;1389;51.490;7.338;2023-03-04T07:01:25;5.50;82.80
2763;DHT22;1389;51.490;7.338;2023-03-04T07:03:53;5.60;82.70
2763;DHT22;1389;51.490;7.338;2023-03-04T07:06:31;5.60;82.70
2763;DHT22;1389;51.490;7.338;2023-03-04T07:09:02;5.60;82.70
2763;DHT22;1389;51.490;7.338;2023-03-04T07:11:30;5.60;82.90
2763;DHT22;1389;51.490;7.338;2023-03-04T07:14:00;5.60;82.90
2763;DHT22;1389;51.490;7.338;2023-03-04T07:16:33;5.60;83.20
2763;DHT22;1389;51.490;7.338;2023-03-04T07:19:17;5.60;83.20
2763;DHT22;1389;51.490;7.338;2023-03-04T07:22:03;5.60;83.20
2763;DHT22;1389;51.490;7.338;2023-03-04T07:24:48;5.60;83.30
2763;DHT22;1389;51.490;7.338;2023-03-04T07:27:28;5.60;83.30
2763;DHT22;1389;51.490;7.338;2023-03-04T07:30:21;5.60;83.50
2763;DHT22;1389;51.490;7.338;2023-03-04T07:33:05;5.70;83.80
2763;DHT22;1389;51.490;7.338;2023-03-04T07:35:58;5.70;83.50
2763;DHT22;1389;51.490;7.338;2023-03-04T07:38:29;5.70;83.80
2763;DHT22;1389;51.490;7.338;2023-03-04T07:40:57;5.70;83.80
2763;DHT22;1389;51.490;7.338;2023-03-04T07:43:25;5.70;83.90
2763;DHT22;1389;51.490;7.338;2023-03-04T07:46:02;5.60;83.90
2763;DHT22;1389;51.490;7.338;2023-03-04T07:48:30;5.60;84.00
2763;DHT22;1389;51.490;7.338;2023-03-04T07:51:11;5.70;84.30
2763;DHT22;1389;51.490;7.338;2023-03-04T07:53:45;5.70;84.30
2763;DHT22;1389;51.490;7.338;2023-03-04T07:56:19;5.70;84.50
2763;DHT22;1389;51.490;7.338;2023-03-04T07:58:50;5.70;84.40
2763;DHT22;1389;51.490;7.338;2023-03-04T08:01:23;5.70;84.50
2763;DHT22;1389;51.490;7.338;2023-03-04T08:03:51;5.70;84.60
2763;DHT22;1389;51.490;7.338;2023-03-04T08:06:20;5.80;84.80
2763;DHT22;1389;51.490;7.338;2023-03-04T08:08:48;5.70;85.10
2763;DHT22;1389;51.490;7.338;2023-03-04T08:11:19;5.80;85.00
2763;DHT22;1389;51.490;7.338;2023-03-04T08:13:47;5.80;85.00
2763;DHT22;1389;51.490;7.338;2023-03-04T08:16:16;5.80;85.20
2763;DHT22;1389;51.490;7.338;2023-03-04T08:18:49;5.90;84.80
2763;DHT22;1389;51.490;7.338;2023-03-04T08:21:18;5.90;84.80
2763;DHT22;1389;51.490;7.338;2023-03-04T08:23:51;5.90;84.80
2763;DHT22;1389;51.490;7.338;2023-03-04T08:26:28;6.00;84.60
2763;DHT22;1389;51.490;7.338;2023-03-04T08:28:57;6.10;84.20
2763;DHT22;1389;51.490;7.338;2023-03-04T08:31:29;6.10;83.90
2763;DHT22;1389;51.490;7.338;2023-03-04T08:34:04;6.20;83.80
2763;DHT22;1389;51.490;7.338;2023-03-04T08:36:35;6.20;83.70
2763;DHT22;1389;51.490;7.338;2023-03-04T08:39:03;6.20;83.70
2763;DHT22;1389;51.490;7.338;2023-03-04T08:41:30;6.30;83.50
2763;DHT22;1389;51.490;7.338;2023-03-04T08:43:56;6.30;83.70
2763;DHT22;1389;51.490;7.338;2023-03-04T08:46:22;6.40;83.30
2763;DHT22;1389;51.490;7.338;2023-03-04T08:48:48;6.50;83.30
2763;DHT22;1389;51.490;7.338;2023-03-04T08:51:17;6.50;83.30
2763;DHT22;1389;51.490;7.338;2023-03-04T08:53:47;6.60;83.00
2763;DHT22;1389;51.490;7.338;2023-03-04T08:56:14;6.60;82.40
2763;DHT22;1389;51.490;7.338;2023-03-04T08:58:41;6.60;82.50
2763;DHT22;1389;51.490;7.338;2023-03-04T09:01:10;6.60;82.70
2763;DHT22;1389;51.490;7.338;2023-03-04T09:03:42;6.60;83.00
2763;DHT22;1389;51.490;7.338;2023-03-04T09:06:10;6.70;82.20
2763;DHT22;1389;51.490;7.338;2023-03-04T09:08:37;6.60;82.30
2763;DHT22;1389;51.490;7.338;2023-03-04T09:11:08;6.70;82.50
2763;DHT22;1389;51.490;7.338;2023-03-04T09:13:45;6.70;82.40
2763;DHT22;1389;51.490;7.338;2023-03-04T09:16:17;6.70;82.70
2763;DHT22;1389;51.490;7.338;2023-03-04T09:19:15;6.60;82.80
2763;DHT22;1389;51.490;7.338;2023-03-04T09:21:56;6.60;82.90
2763;DHT22;1389;51.490;7.338;2023-03-04T09:24:28;6.60;83.10
2763;DHT22;1389;51.490;7.338;2023-03-04T09:27:12;6.70;83.30
2763;DHT22;1389;51.490;7.338;2023-03-04T09:29:46;6.80;82.80
2763;DHT22;1389;51.490;7.338;2023-03-04T09:32:19;6.70;83.10
2763;DHT22;1389;51.490;7.338;2023-03-04T09:34:52;6.60;84.10
2763;DHT22;1389;51.490;7.338;2023-03-04T09:38:01;6.60;85.00
2763;DHT22;1389;51.490;7.338;2023-03-04T09:40:45;6.60;85.00
2763;DHT22;1389;51.490;7.338;2023-03-04T09:43:25;6.50;85.50
2763;DHT22;1389;51.490;7.338;2023-03-04T09:46:07;6.50;86.10
2763;DHT22;1389;51.490;7.338;2023-03-04T09:48:49;6.50;86.40
2763;DHT22;1389;51.490;7.338;2023-03-04T09:51:53;6.50;86.50
2763;DHT22;1389;51.490;7.338;2023-03-04T10:03:24;6.50;87.90
2763;DHT22;1389;51.490;7.338;2023-03-04T10:06:09;6.50;88.00
2763;DHT22;1389;51.490;7.338;2023-03-04T10:09:12;6.50;88.70
2763;DHT22;1389;51.490;7.338;2023-03-04T10:12:06;6.50;89.10
2763;DHT22;1389;51.490;7.338;2023-03-04T10:15:38;6.40;89.00
2763;DHT22;1389;51.490;7.338;2023-03-04T10:18:28;6.50;89.30
2763;DHT22;1389;51.490;7.338;2023-03-04T10:24:12;6.60;88.50
2763;DHT22;1389;51.490;7.338;2023-03-04T10:26:59;6.60;88.60
2763;DHT22;1389;51.490;7.338;2023-03-04T10:29:57;6.50;89.00
2763;DHT22;1389;51.490;7.338;2023-03-04T10:32:46;6.60;89.10
2763;DHT22;1389;51.490;7.338;2023-03-04T10:35:30;6.60;89.30
2763;DHT22;1389;51.490;7.338;2023-03-04T10:38:20;6.60;89.20
2763;DHT22;1389;51.490;7.338;2023-03-04T10:41:26;6.60;89.50
2763;DHT22;1389;51.490;7.338;2023-03-04T10:44:15;6.60;89.90
2763;DHT22;1389;51.490;7.338;2023-03-04T10:47:09;6.60;90.10
2763;DHT22;1389;51.490;7.338;2023-03-04T10:50:12;6.60;90.00
2763;DHT22;1389;51.490;7.338;2023-03-04T10:52:52;6.60;90.00
2763;DHT22;1389;51.490;7.338;2023-03-04T10:55:29;6.60;89.90
2763;DHT22;1389;51.490;7.338;2023-03-04T10:58:06;6.60;90.50
2763;DHT22;1389;51.490;7.338;2023-03-04T11:00:41;6.60;90.80
2763;DHT22;1389;51.490;7.338;2023-03-04T11:03:46;6.60;90.90
2763;DHT22;1389;51.490;7.338;2023-03-04T11:06:58;6.60;90.60
2763;DHT22;1389;51.490;7.338;2023-03-04T11:09:32;6.60;90.70
2763;DHT22;1389;51.490;7.338;2023-03-04T11:12:15;6.60;90.70
2763;DHT22;1389;51.490;7.338;2023-03-04T11:15:18;6.60;90.60
2763;DHT22;1389;51.490;7.338;2023-03-04T11:18:05;6.70;90.50
2763;DHT22;1389;51.490;7.338;2023-03-04T11:20:49;6.70;90.80
2763;DHT22;1389;51.490;7.338;2023-03-04T11:23:34;6.70;90.80
2763;DHT22;1389;51.490;7.338;2023-03-04T11:29:41;6.80;91.10
2763;DHT22;1389;51.490;7.338;2023-03-04T11:32:42;6.80;91.30
2763;DHT22;1389;51.490;7.338;2023-03-04T11:38:46;6.90;91.40
2763;DHT22;1389;51.490;7.338;2023-03-04T11:41:28;7.00;91.30
2763;DHT22;1389;51.490;7.338;2023-03-04T11:44:04;7.00;91.10
2763;DHT22;1389;51.490;7.338;2023-03-04T11:49:54;7.10;90.90
2763;DHT22;1389;51.490;7.338;2023-03-04T11:52:49;7.20;90.60
2763;DHT22;1389;51.490;7.338;2023-03-04T11:58:17;7.20;89.70
2763;DHT22;1389;51.490;7.338;2023-03-04T12:01:09;7.10;90.50
2763;DHT22;1389;51.490;7.338;2023-03-04T12:04:00;7.20;90.80
2763;DHT22;1389;51.490;7.338;2023-03-04T12:06:58;7.20;90.90
2763;DHT22;1389;51.490;7.338;2023-03-04T12:15:43;7.40;91.00
2763;DHT22;1389;51.490;7.338;2023-03-04T12:18:28;7.40;90.50
2763;DHT22;1389;51.490;7.338;2023-03-04T12:24:17;7.40;90.30
2763;DHT22;1389;51.490;7.338;2023-03-04T12:29:58;7.40;91.20
2763;DHT22;1389;51.490;7.338;2023-03-04T12:38:10;7.40;90.50
2763;DHT22;1389;51.490;7.338;2023-03-04T12:40:54;7.40;90.50
2763;DHT22;1389;51.490;7.338;2023-03-04T12:43:47;7.30;90.50
2763;DHT22;1389;51.490;7.338;2023-03-04T12:49:44;7.30;90.70
2763;DHT22;1389;51.490;7.338;2023-03-04T12:52:42;7.30;90.70
2763;DHT22;1389;51.490;7.338;2023-03-04T12:55:23;7.20;90.90
2763;DHT22;1389;51.490;7.338;2023-03-04T12:57:58;7.10;91.00
2763;DHT22;1389;51.490;7.338;2023-03-04T13:14:21;7.10;92.00
2763;DHT22;1389;51.490;7.338;2023-03-04T13:16:49;7.10;91.90
2763;DHT22;1389;51.490;7.338;2023-03-04T13:24:58;7.30;91.50
2763;DHT22;1389;51.490;7.338;2023-03-04T13:33:43;7.30;90.40
2763;DHT22;1389;51.490;7.338;2023-03-04T13:36:52;7.30;90.40
2763;DHT22;1389;51.490;7.338;2023-03-04T13:39:28;7.30;90.30
2763;DHT22;1389;51.490;7.338;2023-03-04T13:42:00;7.30;90.30
2763;DHT22;1389;51.490;7.338;2023-03-04T13:44:54;7.40;90.10
2763;DHT22;1389;51.490;7.338;2023-03-04T13:47:39;7.40;89.60
2763;DHT22;1389;51.490;7.338;2023-03-04T13:50:29;7.40;88.80
2763;DHT22;1389;51.490;7.338;2023-03-04T13:53:09;7.40;88.80
2763;DHT22;1389;51.490;7.338;2023-03-04T13:55:50;7.40;88.90
2763;DHT22;1389;51.490;7.338;2023-03-04T13:58:26;7.40;88.90
2763;DHT22;1389;51.490;7.338;2023-03-04T14:00:54;7.50;89.20
2763;DHT22;1389;51.490;7.338;2023-03-04T14:03:28;7.60;89.30
2763;DHT22;1389;51.490;7.338;2023-03-04T14:06:30;7.70;89.10
2763;DHT22;1389;51.490;7.338;2023-03-04T14:08:57;7.70;88.30
2763;DHT22;1389;51.490;7.338;2023-03-04T14:11:32;7.70;88.30
2763;DHT22;1389;51.490;7.338;2023-03-04T14:14:03;7.70;88.50
2763;DHT22;1389;51.490;7.338;2023-03-04T14:16:36;7.70;88.60
2763;DHT22;1389;51.490;7.338;2023-03-04T14:19:11;7.70;88.40
2763;DHT22;1389;51.490;7.338;2023-03-04T14:21:48;7.70;88.40
2763;DHT22;1389;51.490;7.338;2023-03-04T14:24:19;7.80;88.30
2763;DHT22;1389;51.490;7.338;2023-03-04T14:26:46;7.80;87.70
2763;DHT22;1389;51.490;7.338;2023-03-04T14:29:28;7.70;87.60
2763;DHT22;1389;51.490;7.338;2023-03-04T14:31:57;7.70;88.00
2763;DHT22;1389;51.490;7.338;2023-03-04T14:34:35;7.60;88.30
2763;DHT22;1389;51.490;7.338;2023-03-04T14:37:17;7.60;88.50
2763;DHT22;1389;51.490;7.338;2023-03-04T14:39:44;7.70;88.70
2763;DHT22;1389;51.490;7.338;2023-03-04T14:42:13;7.70;88.70
2763;DHT22;1389;51.490;7.338;2023-03-04T14:44:47;7.80;88.60
2763;DHT22;1389;51.490;7.338;2023-03-04T14:47:22;7.80;88.00
2763;DHT22;1389;51.490;7.338;2023-03-04T14:49:49;7.70;88.10
2763;DHT22;1389;51.490;7.338;2023-03-04T14:57:41;7.80;87.60
2763;DHT22;1389;51.490;7.338;2023-03-04T15:02:42;7.90;87.00
2763;DHT22;1389;51.490;7.338;2023-03-04T15:05:19;7.90;86.10
2763;DHT22;1389;51.490;7.338;2023-03-04T15:07:56;7.80;85.50
2763;DHT22;1389;51.490;7.338;2023-03-04T15:10:35;7.80;85.50
2763;DHT22;1389;51.490;7.338;2023-03-04T15:13:04;7.80;85.10
2763;DHT22;1389;51.490;7.338;2023-03-04T15:20:56;7.70;85.40
2763;DHT22;1389;51.490;7.338;2023-03-04T15:23:28;7.70;85.50
2763;DHT22;1389;51.490;7.338;2023-03-04T15:25:57;7.80;85.40
2763;DHT22;1389;51.490;7.338;2023-03-04T15:28:29;7.80;85.40
2763;DHT22;1389;51.490;7.338;2023-03-04T15:30:56;7.80;85.40
2763;DHT22;1389;51.490;7.338;2023-03-04T15:33:23;7.70;85.30
2763;DHT22;1389;51.490;7.338;2023-03-04T15:35:59;7.70;84.50
2763;DHT22;1389;51.490;7.338;2023-03-04T15:38:26;7.70;84.40
2763;DHT22;1389;51.490;7.338;2023-03-04T15:40:56;7.70;84.20
2763;DHT22;1389;51.490;7.338;2023-03-04T15:43:24;7.70;84.10
2763;DHT22;1389;51.490;7.338;2023-03-04T15:45:51;7.70;83.70
2763;DHT22;1389;51.490;7.338;2023-03-04T15:48:17;7.70;83.70
2763;DHT22;1389;51.490;7.338;2023-03-04T15:53:29;7.70;83.60
2763;DHT22;1389;51.490;7.338;2023-03-04T15:55:57;7.70;83.40
2763;DHT22;1389;51.490;7.338;2023-03-04T15:58:24;7.70;83.50
2763;DHT22;1389;51.490;7.338;2023-03-04T16:00:54;7.80;83.50
2763;DHT22;1389;51.490;7.338;2023-03-04T16:03:21;7.80;83.40
2763;DHT22;1389;51.490;7.338;2023-03-04T16:05:54;7.80;83.30
2763;DHT22;1389;51.490;7.338;2023-03-04T16:08:22;7.80;82.50
2763;DHT22;1389;51.490;7.338;2023-03-04T16:10:50;7.80;82.10
2763;DHT22;1389;51.490;7.338;2023-03-04T16:13:21;7.80;81.90
2763;DHT22;1389;51.490;7.338;2023-03-04T16:15:48;7.70;80.80
2763;DHT22;1389;51.490;7.338;2023-03-04T16:18:15;7.70;80.80
2763;DHT22;1389;51.490;7.338;2023-03-04T16:20:44;7.70;79.90
2763;DHT22;1389;51.490;7.338;2023-03-04T16:23:17;7.70;79.80
2763;DHT22;1389;51.490;7.338;2023-03-04T16:25:46;7.70;80.00
2763;DHT22;1389;51.490;7.338;2023-03-04T16:28:16;7.70;79.90
2763;DHT22;1389;51.490;7.338;2023-03-04T16:30:48;7.60;79.90
2763;DHT22;1389;51.490;7.338;2023-03-04T16:33:21;7.60;79.50
2763;DHT22;1389;51.490;7.338;2023-03-04T16:35:50;7.70;78.10
2763;DHT22;1389;51.490;7.338;2023-03-04T16:38:27;7.70;78.00
2763;DHT22;1389;51.490;7.338;2023-03-04T16:40:58;7.60;78.40
2763;DHT22;1389;51.490;7.338;2023-03-04T16:43:30;7.60;78.20
2763;DHT22;1389;51.490;7.338;2023-03-04T16:45:56;7.60;78.30
2763;DHT22;1389;51.490;7.338;2023-03-04T16:48:32;7.60;78.10
2763;DHT22;1389;51.490;7.338;2023-03-04T16:51:03;7.60;78.10
2763;DHT22;1389;51.490;7.338;2023-03-04T16:53:35;7.60;77.80
2763;DHT22;1389;51.490;7.338;2023-03-04T16:56:10;7.60;77.50
2763;DHT22;1389;51.490;7.338;2023-03-04T16:58:37;7.60;78.00
2763;DHT22;1389;51.490;7.338;2023-03-04T17:01:03;7.60;78.10
2763;DHT22;1389;51.490;7.338;2023-03-04T17:03:31;7.60;78.20
2763;DHT22;1389;51.490;7.338;2023-03-04T17:05:57;7.50;78.30
2763;DHT22;1389;51.490;7.338;2023-03-04T17:08:25;7.60;78.20
2763;DHT22;1389;51.490;7.338;2023-03-04T17:10:51;7.60;78.50
2763;DHT22;1389;51.490;7.338;2023-03-04T17:13:17;7.60;78.40
2763;DHT22;1389;51.490;7.338;2023-03-04T17:15:43;7.50;78.30
2763;DHT22;1389;51.490;7.338;2023-03-04T17:18:11;7.60;78.60
2763;DHT22;1389;51.490;7.338;2023-03-04T17:20:37;7.60;78.60
2763;DHT22;1389;51.490;7.338;2023-03-04T17:23:04;7.60;78.40
2763;DHT22;1389;51.490;7.338;2023-03-04T17:25:31;7.60;78.20
2763;DHT22;1389;51.490;7.338;2023-03-04T17:27:58;7.50;78.00
2763;DHT22;1389;51.490;7.338;2023-03-04T17:30:30;7.50;77.40
2763;DHT22;1389;51.490;7.338;2023-03-04T17:32:57;7.50;77.20
2763;DHT22;1389;51.490;7.338;2023-03-04T17:35:25;7.50;77.30
2763;DHT22;1389;51.490;7.338;2023-03-04T17:37:53;7.50;77.00
2763;DHT22;1389;51.490;7.338;2023-03-04T17:40:20;7.50;77.00
2763;DHT22;1389;51.490;7.338;2023-03-04T17:42:49;7.50;77.00
2763;DHT22;1389;51.490;7.338;2023-03-04T17:45:17;7.40;77.50
2763;DHT22;1389;51.490;7.338;2023-03-04T17:47:45;7.40;77.70
2763;DHT22;1389;51.490;7.338;2023-03-04T17:50:11;7.40;77.60
2763;DHT22;1389;51.490;7.338;2023-03-04T17:52:37;7.40;77.00
2763;DHT22;1389;51.490;7.338;2023-03-04T17:55:04;7.30;77.50
2763;DHT22;1389;51.490;7.338;2023-03-04T17:57:30;7.30;77.70
2763;DHT22;1389;51.490;7.338;2023-03-04T17:59:56;7.40;78.20
2763;DHT22;1389;51.490;7.338;2023-03-04T18:02:22;7.40;78.00
2763;DHT22;1389;51.490;7.338;2023-03-04T18:04:48;7.40;78.20
2763;DHT22;1389;51.490;7.338;2023-03-04T18:07:15;7.40;78.30
2763;DHT22;1389;51.490;7.338;2023-03-04T18:09:41;7.40;78.20
2763;DHT22;1389;51.490;7.338;2023-03-04T18:12:09;7.40;78.50
2763;DHT22;1389;51.490;7.338;2023-03-04T18:14:35;7.40;78.60
2763;DHT22;1389;51.490;7.338;2023-03-04T18:17:01;7.40;78.60
2763;DHT22;1389;51.490;7.338;2023-03-04T18:19:27;7.40;78.80
2763;DHT22;1389;51.490;7.338;2023-03-04T18:21:54;7.40;78.90